Latest Weather Observations for Port Kembla Harbour

IDN60801

Issued at 2:34 pm EDT Saturday 31 January 2015 (issued every 30 minutes, with the page automatically refreshed every 10 minutes)

About weather observations | Map of weather stations | Latest weather observations for NSW | Other Formats
Station Details ID: 068253 Name: PORT KEMBLA NTC AWS Lat: -34.47 Lon: 150.91 Height: 0.0 m
Data from the previous 72 hours. | See also: Recent months for locations in New South Wales
Date/Time
EDT
Temp
°C
App
Temp
°C
Dew
Point
Rel
Hum
%
Delta-T
°C
Wind Press
QNH
hPa
Press
MSL
hPa
Rain
since 9 am
mm
Dir
 
Spd
km/h
Gust
km/h
Spd
kts
Gust
kts
31/02:30pm 21.1 - - - - ESE 13 20 7 11 1006.1 1006.1 -
31/02:00pm 20.9 - - - - ESE 13 19 7 10 1006.2 1006.2 -
31/01:30pm 21.0 - - - - ESE 11 17 6 9 1006.3 1006.3 -
31/01:00pm 20.9 - - - - ESE 13 20 7 11 1006.5 1006.5 -
31/12:30pm 20.8 - - - - ESE 11 17 6 9 1006.8 1006.8 -
31/12:00pm 20.9 - - - - ESE 9 17 5 9 1006.9 1006.9 -
31/11:30am 21.1 - - - - E 7 13 4 7 1007.3 1007.3 -
31/11:00am 21.0 - - - - ESE 7 11 4 6 1007.6 1007.6 -
31/10:30am 20.6 - - - - ESE 9 13 5 7 1007.7 1007.7 -
31/10:00am 21.1 - - - - SE 7 13 4 7 1007.8 1007.8 -
31/09:30am 21.5 - - - - SE 4 7 2 4 1007.7 1007.7 -
31/09:00am 21.0 - - - - NE 4 6 2 3 1007.7 1007.7 -
31/08:30am 19.9 - - - - WNW 6 7 3 4 1007.5 1007.5 -
31/08:00am 18.9 - - - - W 4 6 2 3 1007.4 1007.4 -
31/07:30am 17.6 - - - - WSW 7 7 4 4 1007.1 1007.1 -
31/07:00am 16.5 - - - - WSW 7 9 4 5 1006.9 1006.9 -
31/06:30am 16.6 - - - - SW 6 7 3 4 1006.6 1006.6 -
31/06:00am 16.8 - - - - WSW 6 7 3 4 1006.5 1006.5 -
31/05:30am 17.5 - - - - WSW 6 7 3 4 1006.1 1006.1 -
31/05:00am 17.9 - - - - WSW 7 9 4 5 1006.1 1006.1 -
31/04:30am 17.7 - - - - WSW 9 9 5 5 1005.9 1005.9 -
31/04:00am 18.0 - - - - WSW 7 11 4 6 1005.9 1005.9 -
31/03:30am 18.2 - - - - SW 4 6 2 3 1006.0 1006.0 -
31/03:00am 18.3 - - - - WSW 6 9 3 5 1006.2 1006.2 -
31/02:30am 18.2 - - - - W 4 6 2 3 1006.2 1006.2 -
31/02:00am 17.9 - - - - WSW 7 7 4 4 1006.3 1006.3 -
31/01:30am 18.2 - - - - WSW 6 7 3 4 1006.5 1006.5 -
31/01:00am 18.8 - - - - W 9 9 5 5 1006.8 1006.8 -
31/12:30am 19.2 - - - - SW 11 17 6 9 1006.8 1006.8 -
31/12:00am 18.9 - - - - SW 7 11 4 6 1007.0 1007.0 -
 
Date/Time
EDT
Temp
°C
App
Temp
°C
Dew
Point
Rel
Hum
%
Delta-T
°C
Wind Press
QNH
hPa
Press
MSL
hPa
Rain
since 9 am
mm
Dir
 
Spd
km/h
Gust
km/h
Spd
kts
Gust
kts
30/11:30pm 19.1 - - - - SW 7 9 4 5 1007.1 1007.1 -
30/11:00pm 19.4 - - - - SW 9 13 5 7 1007.3 1007.3 -
30/10:30pm 19.8 - - - - SW 11 17 6 9 1007.3 1007.3 -
30/10:00pm 20.1 - - - - SW 7 11 4 6 1007.2 1007.2 -
30/09:30pm 20.7 - - - - SSW 9 20 5 11 1007.1 1007.1 -
30/09:00pm 20.7 - - - - S 9 17 5 9 1006.9 1006.9 -
30/08:30pm 20.9 - - - - S 13 24 7 13 1006.5 1006.5 -
30/08:00pm 21.1 - - - - S 11 24 6 13 1006.1 1006.1 -
30/07:30pm 21.5 - - - - S 15 26 8 14 1005.8 1005.8 -
30/07:00pm 21.5 - - - - S 13 26 7 14 1005.6 1005.6 -
30/06:30pm 21.9 - - - - S 13 32 7 17 1005.3 1005.3 -
30/06:00pm 21.8 - - - - S 11 22 6 12 1005.1 1005.1 -
30/05:30pm 21.6 - - - - SSE 13 24 7 13 1004.9 1004.9 -
30/05:00pm 22.4 - - - - S 11 19 6 10 1004.8 1004.8 -
30/04:30pm 22.4 - - - - S 13 28 7 15 1005.0 1005.0 -
30/04:00pm 24.5 - - - - SSW 13 26 7 14 1004.8 1004.8 -
30/03:30pm 24.3 - - - - SW 20 33 11 18 1004.9 1004.9 -
30/03:00pm 23.7 - - - - SW 20 32 11 17 1005.1 1005.1 -
30/02:30pm 23.2 - - - - S 7 17 4 9 1005.5 1005.5 -
30/02:00pm 23.0 - - - - SW 19 33 10 18 1005.8 1005.8 -
30/01:30pm 22.3 - - - - WSW 22 32 12 17 1006.3 1006.3 -
30/01:00pm 20.7 - - - - WSW 20 30 11 16 1006.7 1006.7 -
30/12:30pm 19.7 - - - - WSW 20 30 11 16 1007.3 1007.3 -
30/12:00pm 19.5 - - - - WSW 22 33 12 18 1007.8 1007.8 -
30/11:30am 19.4 - - - - WSW 24 37 13 20 1007.9 1007.9 -
30/11:00am 19.7 - - - - WSW 22 37 12 20 1008.2 1008.2 -
30/10:30am 19.6 - - - - WSW 26 43 14 23 1008.3 1008.3 -
30/10:00am 19.3 - - - - WSW 26 39 14 21 1008.5 1008.5 -
30/09:30am 19.0 - - - - WSW 26 39 14 21 1008.5 1008.5 -
30/09:00am 18.8 - - - - WSW 28 37 15 20 1008.7 1008.7 -
30/08:30am 18.3 - - - - WSW 26 37 14 20 1008.6 1008.6 -
30/08:00am 18.0 - - - - WSW 24 32 13 17 1008.5 1008.5 -
30/07:30am 17.8 - - - - WSW 20 32 11 17 1008.4 1008.4 -
30/07:00am 17.6 - - - - WSW 20 32 11 17 1008.3 1008.3 -
30/06:30am 17.3 - - - - WSW 19 32 10 17 1008.0 1008.0 -
30/06:00am 17.3 - - - - SW 19 33 10 18 1007.8 1007.8 -
30/05:30am 17.2 - - - - WSW 17 26 9 14 1007.9 1007.9 -
30/05:00am 17.3 - - - - SW 15 22 8 12 1007.9 1007.9 -
30/04:30am 17.4 - - - - WSW 20 33 11 18 1008.0 1008.0 -
30/04:00am 17.5 - - - - WSW 22 33 12 18 1008.3 1008.3 -
30/03:30am 17.7 - - - - SW 24 35 13 19 1008.5 1008.5 -
30/03:00am 17.6 - - - - WSW 19 35 10 19 1008.6 1008.6 -
30/02:30am 17.9 - - - - SW 20 35 11 19 1008.9 1008.9 -
30/02:00am 18.1 - - - - SW 13 20 7 11 1009.1 1009.1 -
30/01:30am 18.3 - - - - WSW 20 33 11 18 1009.6 1009.6 -
30/01:00am 18.1 - - - - WSW 19 37 10 20 1010.0 1010.0 -
30/12:30am 18.0 - - - - WSW 17 30 9 16 1010.5 1010.5 -
30/12:00am 18.2 - - - - SW 17 28 9 15 1010.6 1010.6 -
 
Date/Time
EDT
Temp
°C
App
Temp
°C
Dew
Point
Rel
Hum
%
Delta-T
°C
Wind Press
QNH
hPa
Press
MSL
hPa
Rain
since 9 am
mm
Dir
 
Spd
km/h
Gust
km/h
Spd
kts
Gust
kts
29/11:30pm 18.0 - - - - SW 19 28 10 15 1010.8 1010.8 -
29/11:00pm 18.1 - - - - SW 17 28 9 15 1011.1 1011.1 -
29/10:30pm 18.5 - - - - SW 20 44 11 24 1011.4 1011.4 -
29/10:00pm 18.4 - - - - SW 19 30 10 16 1011.5 1011.5 -
29/09:30pm 18.7 - - - - SW 20 33 11 18 1011.4 1011.4 -
29/09:00pm 18.8 - - - - SW 19 33 10 18 1011.4 1011.4 -
29/08:30pm 19.0 - - - - SW 20 35 11 19 1011.2 1011.2 -
29/08:00pm 19.3 - - - - SW 24 44 13 24 1011.1 1011.1 -
29/07:30pm 19.6 - - - - SW 20 37 11 20 1010.9 1010.9 -
29/07:00pm 19.6 - - - - SW 20 35 11 19 1010.7 1010.7 -
29/06:30pm 20.3 - - - - SSW 19 39 10 21 1010.4 1010.4 -
29/06:00pm 20.8 - - - - SSW 20 35 11 19 1010.2 1010.2 -
29/05:30pm 20.9 - - - - SSW 22 39 12 21 1010.2 1010.2 -
29/05:00pm 21.1 - - - - S 17 35 9 19 1010.3 1010.3 -
29/04:30pm 20.9 - - - - S 19 35 10 19 1010.6 1010.6 -
29/04:00pm 20.7 - - - - SSW 19 37 10 20 1010.7 1010.7 -
29/03:30pm 20.9 - - - - S 17 37 9 20 1010.8 1010.8 -
29/03:00pm 21.5 - - - - SW 24 37 13 20 1011.0 1011.0 -
29/02:30pm 21.1 - - - - SSW 20 41 11 22 1011.1 1011.1 -
29/02:00pm 21.1 - - - - SW 26 44 14 24 1011.5 1011.5 -
29/01:52pm 20.9 - - - - SW 28 46 15 25 1011.5 1011.5 -
29/01:30pm 21.4 - - - - SSW 19 37 10 20 1011.4 1011.4 -
29/01:00pm 21.1 - - - - SSW 22 41 12 22 1011.8 1011.8 -
29/12:30pm 20.5 - - - - SSW 22 41 12 22 1012.0 1012.0 -
29/12:00pm 20.4 - - - - SSW 22 39 12 21 1012.2 1012.2 -
29/11:30am 20.1 - - - - SSW 20 37 11 20 1012.4 1012.4 -
29/11:00am 19.5 - - - - SW 22 35 12 19 1012.6 1012.6 -
29/10:30am 19.3 - - - - SW 24 39 13 21 1012.7 1012.7 -
29/10:00am 18.9 - - - - SW 22 39 12 21 1012.7 1012.7 -
29/09:30am 18.0 - - - - SW 24 37 13 20 1012.8 1012.8 -
29/09:00am 17.6 - - - - WSW 22 33 12 18 1012.9 1012.9 -
29/08:30am 17.2 - - - - SW 26 41 14 22 1012.9 1012.9 -
29/08:00am 17.0 - - - - SW 26 39 14 21 1012.8 1012.8 -
29/07:30am 16.5 - - - - SW 26 37 14 20 1012.6 1012.6 -
29/07:00am 16.3 - - - - SW 26 43 14 23 1012.2 1012.2 -
29/06:30am 16.3 - - - - SW 24 35 13 19 1011.9 1011.9 -
29/06:00am 16.4 - - - - SW 24 35 13 19 1011.9 1011.9 -
29/05:30am 16.6 - - - - SW 22 35 12 19 1011.8 1011.8 -
29/05:00am 16.6 - - - - WSW 19 39 10 21 1011.9 1011.9 -
29/04:30am 16.6 - - - - WSW 19 30 10 16 1011.8 1011.8 -
29/04:00am 16.8 - - - - WSW 24 37 13 20 1011.9 1011.9 -
29/03:30am 16.4 - - - - SW 22 32 12 17 1012.1 1012.1 -
29/03:00am 16.9 - - - - SW 20 32 11 17 1012.1 1012.1 -
29/02:30am 16.9 - - - - SW 20 32 11 17 1012.4 1012.4 -
29/02:00am 16.8 - - - - SW 20 33 11 18 1012.7 1012.7 -

Other Formats:

Comma delimited format used in spreadsheet applications
http://www.bom.gov.au/fwo/IDN60801/IDN60801.95745.axf

JavaScript Object Notation format (JSON) in row-major order
http://www.bom.gov.au/fwo/IDN60801/IDN60801.95745.json